createdAt,value
2018-09-09T00:04:53.396Z,100929.03
2018-09-09T00:09:56.627Z,100946.34
2018-09-09T00:14:54.774Z,100946.13
2018-09-09T00:19:52.171Z,100926.97
2018-09-09T00:24:49.671Z,100912.06
2018-09-09T00:29:47.063Z,100904.20
2018-09-09T00:34:44.472Z,100900.10
2018-09-09T00:39:52.155Z,100900.72
2018-09-09T00:44:49.551Z,100906.41
2018-09-09T00:49:53.359Z,100911.33
2018-09-09T00:54:50.732Z,100919.61
2018-09-09T00:59:48.106Z,100918.98
2018-09-09T01:04:45.567Z,100923.59
2018-09-09T01:09:55.736Z,100923.91
2018-09-09T01:14:53.117Z,100924.02
2018-09-09T01:19:50.487Z,100920.45
2018-09-09T01:24:47.858Z,100923.48
2018-09-09T01:29:45.243Z,100916.38
2018-09-09T01:34:42.662Z,100914.44
2018-09-09T01:39:50.070Z,100921.55
2018-09-09T01:44:47.439Z,100928.66
2018-09-09T01:49:44.923Z,100931.13
2018-09-09T01:54:42.347Z,100919.61
2018-09-09T01:59:39.719Z,100908.59
2018-09-09T02:04:37.142Z,100919.02
2018-09-09T02:09:44.718Z,100926.55
2018-09-09T02:14:42.174Z,100924.31
2018-09-09T02:19:39.583Z,100917.92
2018-09-09T02:24:36.963Z,100915.08
2018-09-09T02:29:34.623Z,100918.58
2018-09-09T02:34:31.995Z,100919.46
2018-09-09T02:39:36.149Z,100921.62
2018-09-09T02:44:33.778Z,100922.91
2018-09-09T02:49:31.152Z,100930.13
2018-09-09T02:54:28.531Z,100923.12
2018-09-09T02:59:25.926Z,100926.77
2018-09-09T03:04:23.316Z,100922.48
2018-09-09T03:09:29.695Z,100927.65
2018-09-09T03:14:27.292Z,100923.63
2018-09-09T03:19:24.685Z,100927.60
2018-09-09T03:24:22.072Z,100926.31
2018-09-09T03:29:19.447Z,100932.16
2018-09-09T03:34:16.832Z,100922.13
2018-09-09T03:39:24.857Z,100923.23
2018-09-09T03:44:22.328Z,100930.73
2018-09-09T03:49:19.711Z,100919.27
2018-09-09T03:54:17.395Z,100924.45
2018-09-09T03:59:14.778Z,100935.83
2018-09-09T04:04:12.160Z,100918.27
2018-09-09T04:09:13.393Z,100917.03
2018-09-09T04:14:10.896Z,100916.23
2018-09-09T04:19:08.249Z,100920.68
2018-09-09T04:24:06.591Z,100915.19
2018-09-09T04:29:03.993Z,100907.04
2018-09-09T04:34:01.412Z,100896.52
2018-09-09T04:38:58.839Z,100907.25
2018-09-09T04:43:56.380Z,100915.39
2018-09-09T04:48:53.804Z,100925.08
2018-09-09T04:53:51.261Z,100937.75
2018-09-09T04:58:49.355Z,100935.42
2018-09-09T05:03:47.694Z,100931.87
2018-09-09T05:08:45.204Z,100935.45
2018-09-09T05:13:42.586Z,100945.72
2018-09-09T05:18:40.203Z,100953.64
2018-09-09T05:23:37.610Z,100953.62
2018-09-09T05:28:34.999Z,100958.39
2018-09-09T05:33:32.471Z,100961.12
2018-09-09T05:38:29.851Z,100964.30
2018-09-09T05:43:27.339Z,100949.13
2018-09-09T05:48:24.776Z,100966.98
2018-09-09T05:53:22.210Z,100976.36
2018-09-09T05:58:20.079Z,100983.38
2018-09-09T06:03:18.105Z,100984.78
2018-09-09T06:08:16.142Z,100991.11
2018-09-09T06:13:13.563Z,100983.33
2018-09-09T06:18:11.031Z,100990.91
2018-09-09T06:23:08.439Z,100994.63
2018-09-09T06:28:05.823Z,100990.29
2018-09-09T06:33:03.210Z,100979.17
2018-09-09T06:38:00.591Z,100971.08
2018-09-09T06:42:57.994Z,100973.42
2018-09-09T06:47:55.411Z,100982.30
2018-09-09T06:52:52.831Z,100990.98
2018-09-09T06:57:50.235Z,100994.09
2018-09-09T07:02:47.619Z,100993.16
2018-09-09T07:07:45.055Z,100996.30
2018-09-09T07:12:42.531Z,101005.19
2018-09-09T07:17:39.934Z,100998.14
2018-09-09T07:22:37.402Z,101007.62
2018-09-09T07:27:34.763Z,101022.55
2018-09-09T07:32:32.153Z,101023.03
2018-09-09T07:37:29.560Z,101016.54
2018-09-09T07:42:26.963Z,101009.08
2018-09-09T07:47:24.373Z,101013.37
2018-09-09T07:52:22.599Z,101013.53
2018-09-09T07:57:20.024Z,101011.88
2018-09-09T08:02:17.435Z,101013.16
2018-09-09T08:07:14.834Z,101021.13
2018-09-09T08:12:12.384Z,101034.27
2018-09-09T08:17:10.210Z,101027.00
2018-09-09T08:22:07.652Z,101019.78
2018-09-09T08:27:05.147Z,101023.11
2018-09-09T08:32:03.495Z,101021.43
2018-09-09T08:37:00.911Z,101027.70
2018-09-09T08:41:58.401Z,101042.56
2018-09-09T08:46:55.795Z,101032.55
2018-09-09T08:51:53.273Z,101029.23
2018-09-09T08:56:50.662Z,101026.31
2018-09-09T09:01:48.062Z,101018.77
2018-09-09T09:06:45.471Z,101010.58
2018-09-09T09:11:42.924Z,100997.06
2018-09-09T09:16:40.319Z,100990.14
2018-09-09T09:21:37.727Z,100987.36
2018-09-09T09:26:35.330Z,100984.73
2018-09-09T09:31:32.831Z,100991.89
2018-09-09T09:36:30.224Z,100996.21
2018-09-09T09:41:27.670Z,100996.45
2018-09-09T09:46:25.093Z,100998.52
2018-09-09T09:51:22.528Z,101004.33
2018-09-09T09:56:19.915Z,101002.91
2018-09-09T10:01:17.366Z,101005.91
2018-09-09T10:06:14.768Z,100995.30
2018-09-09T10:11:12.190Z,100996.45
2018-09-09T10:16:09.602Z,100984.50
2018-09-09T10:21:07.014Z,100980.02
2018-09-09T10:26:04.387Z,100991.05
2018-09-09T10:31:01.770Z,100992.42
2018-09-09T10:35:59.192Z,100999.44
2018-09-09T10:40:56.613Z,100995.32
2018-09-09T10:45:54.043Z,100992.65
2018-09-09T10:50:51.450Z,100989.59
2018-09-09T10:55:48.939Z,100977.92
2018-09-09T11:00:46.400Z,100984.73
2018-09-09T11:05:43.798Z,100986.38
2018-09-09T11:10:41.288Z,100985.27
2018-09-09T11:15:38.742Z,100991.86
2018-09-09T11:20:36.167Z,100992.55
2018-09-09T11:25:33.625Z,100988.38
2018-09-09T11:30:31.005Z,100987.26
2018-09-09T11:35:28.669Z,100984.88
2018-09-09T11:40:26.645Z,100989.96
2018-09-09T11:45:24.040Z,100980.05
2018-09-09T11:50:21.455Z,100981.62
2018-09-09T11:55:18.886Z,100987.46
2018-09-09T12:00:16.390Z,100984.34
2018-09-09T12:05:13.828Z,100982.33
2018-09-09T12:10:12.329Z,100982.99
2018-09-09T12:15:09.786Z,100977.55
2018-09-09T12:20:07.199Z,100983.77
2018-09-09T12:25:04.619Z,100981.64
2018-09-09T12:30:02.065Z,100981.30
2018-09-09T12:34:59.465Z,100967.64
2018-09-09T12:39:58.070Z,100970.28
2018-09-09T12:45:01.127Z,100968.64
2018-09-09T12:49:58.516Z,100960.95
2018-09-09T12:54:55.917Z,100962.77
2018-09-09T12:59:53.376Z,100960.59
2018-09-09T13:04:50.779Z,100957.72
2018-09-09T13:09:50.898Z,100953.44
2018-09-09T13:14:48.484Z,100952.83
2018-09-09T13:19:45.881Z,100945.37
2018-09-09T13:24:43.295Z,100955.17
2018-09-09T13:29:40.720Z,100949.58
2018-09-09T13:34:38.126Z,100944.55
2018-09-09T13:39:41.317Z,100946.86
2018-09-09T13:44:39.244Z,100940.52
2018-09-09T13:49:37.132Z,100939.84
2018-09-09T13:54:34.539Z,100935.47
2018-09-09T13:59:32.243Z,100943.64
2018-09-09T14:04:29.668Z,100951.09
2018-09-09T14:09:33.435Z,100957.73
2018-09-09T14:14:31.252Z,100958.78
2018-09-09T14:19:28.652Z,100953.45
2018-09-09T14:24:26.067Z,100947.53
2018-09-09T14:29:23.474Z,100945.22
2018-09-09T14:34:20.965Z,100940.56
2018-09-09T14:39:18.379Z,100944.11
2018-09-09T14:44:15.786Z,100952.70
2018-09-09T14:49:13.208Z,100959.80
2018-09-09T14:54:10.607Z,100952.30
2018-09-09T14:59:08.044Z,100951.27
2018-09-09T15:04:05.487Z,100953.44
2018-09-09T15:09:03.712Z,100937.14
2018-09-09T15:14:01.099Z,100927.53
2018-09-09T15:18:58.510Z,100926.22
2018-09-09T15:23:55.890Z,100927.86
2018-09-09T15:28:53.411Z,100928.80
2018-09-09T15:33:51.195Z,100932.97
2018-09-09T15:38:48.599Z,100920.09
2018-09-09T15:43:46.018Z,100914.30
2018-09-09T15:48:43.418Z,100913.73
2018-09-09T15:53:40.834Z,100921.39
2018-09-09T15:58:38.255Z,100917.97
2018-09-09T16:03:35.688Z,100922.23
2018-09-09T16:08:33.135Z,100918.42
2018-09-09T16:13:30.540Z,100921.36
2018-09-09T16:18:27.932Z,100922.70
2018-09-09T16:23:25.369Z,100923.84
2018-09-09T16:28:22.776Z,100921.92
2018-09-09T16:33:20.191Z,100922.72
2018-09-09T16:38:17.591Z,100917.61
2018-09-09T16:43:14.988Z,100916.54
2018-09-09T16:48:12.423Z,100913.08
2018-09-09T16:53:09.826Z,100907.09
2018-09-09T16:58:07.492Z,100904.70
2018-09-09T17:03:04.939Z,100907.09
2018-09-09T17:08:03.215Z,100901.09
2018-09-09T17:13:00.636Z,100911.66
2018-09-09T17:17:58.071Z,100908.55
2018-09-09T17:22:55.500Z,100908.84
2018-09-09T17:27:52.914Z,100906.69
2018-09-09T17:32:50.304Z,100911.75
2018-09-09T17:37:47.732Z,100924.50
2018-09-09T17:42:45.193Z,100926.77
2018-09-09T17:47:42.602Z,100937.77
2018-09-09T17:52:40.016Z,100946.63
2018-09-09T17:57:44.161Z,100945.70
2018-09-09T18:02:41.587Z,100952.98
2018-09-09T18:07:39.006Z,100954.60
2018-09-09T18:12:36.539Z,100959.06
2018-09-09T18:17:34.065Z,100963.58
2018-09-09T18:22:31.423Z,100963.72
2018-09-09T18:27:28.872Z,100963.58
2018-09-09T18:32:26.292Z,100972.31
2018-09-09T18:37:23.667Z,100964.64
2018-09-09T18:42:21.042Z,100972.27
2018-09-09T18:47:18.410Z,100973.03
2018-09-09T18:52:15.819Z,100977.33
2018-09-09T18:57:13.287Z,100972.45
2018-09-09T19:02:10.683Z,100978.20
2018-09-09T19:07:08.089Z,100986.79
2018-09-09T19:12:05.486Z,100985.09
2018-09-09T19:17:03.216Z,100988.70
2018-09-09T19:22:00.681Z,100988.21
2018-09-09T19:26:58.040Z,100985.56
2018-09-09T19:31:55.461Z,100997.31
2018-09-09T19:36:52.957Z,100988.80
2018-09-09T19:41:50.339Z,100984.58
2018-09-09T19:46:47.756Z,100987.41
2018-09-09T19:51:45.168Z,100989.95
2018-09-09T19:56:42.579Z,100986.98
2018-09-09T20:01:40.200Z,100991.72
2018-09-09T20:06:37.597Z,101005.95
2018-09-09T20:11:35.031Z,101007.98
2018-09-09T20:16:32.448Z,101001.17
2018-09-09T20:21:29.883Z,100995.42
2018-09-09T20:26:27.312Z,100990.78
2018-09-09T20:31:24.712Z,100993.69
2018-09-09T20:36:22.333Z,100990.41
2018-09-09T20:41:19.762Z,100992.41
2018-09-09T20:46:17.152Z,100992.05
2018-09-09T20:51:14.561Z,100995.28
2018-09-09T20:56:11.952Z,100997.73
2018-09-09T21:01:09.347Z,101000.50
2018-09-09T21:06:06.759Z,101000.59
2018-09-09T21:11:04.166Z,101003.08
2018-09-09T21:16:01.547Z,101006.23
2018-09-09T21:20:58.922Z,100998.13
2018-09-09T21:25:56.456Z,100998.84
2018-09-09T21:30:53.800Z,101000.38
2018-09-09T21:35:51.719Z,100992.22
2018-09-09T21:40:49.204Z,100993.64
2018-09-09T21:45:46.587Z,100987.77
2018-09-09T21:50:43.981Z,100980.53
2018-09-09T21:55:42.312Z,100980.22
2018-09-09T22:00:45.324Z,100988.81
2018-09-09T22:05:42.755Z,100980.22
2018-09-09T22:10:40.144Z,100978.92
2018-09-09T22:15:37.535Z,100979.41
2018-09-09T22:20:34.918Z,100975.30
2018-09-09T22:25:32.301Z,100968.45
2018-09-09T22:30:29.704Z,100969.22
2018-09-09T22:35:27.367Z,100963.34
2018-09-09T22:40:24.807Z,100967.22
2018-09-09T22:45:22.183Z,100968.95
2018-09-09T22:50:19.563Z,100970.27
2018-09-09T22:55:16.982Z,100970.16
2018-09-09T23:00:14.395Z,100969.84
2018-09-09T23:05:11.775Z,100966.23
2018-09-09T23:10:10.222Z,100957.17
2018-09-09T23:15:07.642Z,100961.84
2018-09-09T23:20:05.092Z,100950.46
2018-09-09T23:25:02.483Z,100948.58
2018-09-09T23:29:59.858Z,100944.86
2018-09-09T23:34:57.246Z,100945.73
2018-09-09T23:39:55.779Z,100936.56
2018-09-09T23:44:53.263Z,100940.82
2018-09-09T23:49:50.651Z,100934.55
2018-09-09T23:54:48.029Z,100922.66
2018-09-09T23:59:45.411Z,100926.63
